sensor_id;sensor_type;location;lat;lon;timestamp;temperature;humidity
1680;DHT22;838;51.794;12.258;2023-04-25T00:01:26;9.90;9.30
1680;DHT22;838;51.794;12.258;2023-04-25T00:06:18;10.00;7.50
1680;DHT22;838;51.794;12.258;2023-04-25T00:08:44;10.00;8.10
1680;DHT22;838;51.794;12.258;2023-04-25T00:11:10;9.80;8.20
1680;DHT22;838;51.794;12.258;2023-04-25T00:13:35;9.80;9.50
1680;DHT22;838;51.794;12.258;2023-04-25T00:16:01;9.80;9.30
1680;DHT22;838;51.794;12.258;2023-04-25T00:18:27;9.80;9.50
1680;DHT22;838;51.794;12.258;2023-04-25T00:20:54;9.90;9.20
1680;DHT22;838;51.794;12.258;2023-04-25T00:23:21;9.90;9.70
1680;DHT22;838;51.794;12.258;2023-04-25T00:25:48;9.80;9.40
1680;DHT22;838;51.794;12.258;2023-04-25T00:28:15;9.90;9.20
1680;DHT22;838;51.794;12.258;2023-04-25T00:30:41;9.90;8.70
1680;DHT22;838;51.794;12.258;2023-04-25T00:33:07;9.90;8.50
1680;DHT22;838;51.794;12.258;2023-04-25T00:35:33;9.80;8.20
1680;DHT22;838;51.794;12.258;2023-04-25T00:38:00;9.60;9.10
1680;DHT22;838;51.794;12.258;2023-04-25T00:40:26;9.60;9.30
1680;DHT22;838;51.794;12.258;2023-04-25T00:42:52;9.40;9.80
1680;DHT22;838;51.794;12.258;2023-04-25T00:45:19;9.30;10.50
1680;DHT22;838;51.794;12.258;2023-04-25T00:47:45;9.20;10.70
1680;DHT22;838;51.794;12.258;2023-04-25T00:50:12;9.10;11.20
1680;DHT22;838;51.794;12.258;2023-04-25T00:52:43;9.10;11.40
1680;DHT22;838;51.794;12.258;2023-04-25T00:55:10;9.10;11.70
1680;DHT22;838;51.794;12.258;2023-04-25T01:00:07;9.10;10.50
1680;DHT22;838;51.794;12.258;2023-04-25T01:02:35;9.00;11.00
1680;DHT22;838;51.794;12.258;2023-04-25T01:05:02;8.90;11.30
1680;DHT22;838;51.794;12.258;2023-04-25T01:07:28;8.80;11.90
1680;DHT22;838;51.794;12.258;2023-04-25T01:09:54;8.80;11.90
1680;DHT22;838;51.794;12.258;2023-04-25T01:12:20;8.80;11.40
1680;DHT22;838;51.794;12.258;2023-04-25T01:14:46;8.80;11.40
1680;DHT22;838;51.794;12.258;2023-04-25T01:17:12;8.70;11.90
1680;DHT22;838;51.794;12.258;2023-04-25T01:19:39;8.50;12.50
1680;DHT22;838;51.794;12.258;2023-04-25T01:22:05;8.40;13.20
1680;DHT22;838;51.794;12.258;2023-04-25T01:24:33;8.40;13.30
1680;DHT22;838;51.794;12.258;2023-04-25T01:27:00;8.40;13.10
1680;DHT22;838;51.794;12.258;2023-04-25T01:29:27;8.30;14.20
1680;DHT22;838;51.794;12.258;2023-04-25T01:31:53;8.20;14.90
1680;DHT22;838;51.794;12.258;2023-04-25T01:34:19;8.20;15.40
1680;DHT22;838;51.794;12.258;2023-04-25T01:36:47;8.10;16.00
1680;DHT22;838;51.794;12.258;2023-04-25T01:39:14;8.10;16.20
1680;DHT22;838;51.794;12.258;2023-04-25T01:41:40;8.00;17.10
1680;DHT22;838;51.794;12.258;2023-04-25T01:44:06;7.80;17.50
1680;DHT22;838;51.794;12.258;2023-04-25T01:46:33;7.90;18.60
1680;DHT22;838;51.794;12.258;2023-04-25T01:48:58;8.00;18.10
1680;DHT22;838;51.794;12.258;2023-04-25T01:51:24;8.00;18.70
1680;DHT22;838;51.794;12.258;2023-04-25T01:53:50;8.00;19.10
1680;DHT22;838;51.794;12.258;2023-04-25T01:56:18;8.10;19.10
1680;DHT22;838;51.794;12.258;2023-04-25T01:58:44;8.10;18.90
1680;DHT22;838;51.794;12.258;2023-04-25T02:01:10;8.20;18.80
1680;DHT22;838;51.794;12.258;2023-04-25T02:03:36;8.30;18.00
1680;DHT22;838;51.794;12.258;2023-04-25T02:06:02;8.30;17.70
1680;DHT22;838;51.794;12.258;2023-04-25T02:08:28;8.30;17.10
1680;DHT22;838;51.794;12.258;2023-04-25T02:10:53;8.30;16.80
1680;DHT22;838;51.794;12.258;2023-04-25T02:13:19;8.20;17.40
1680;DHT22;838;51.794;12.258;2023-04-25T02:15:45;8.10;17.20
1680;DHT22;838;51.794;12.258;2023-04-25T02:18:11;8.00;18.20
1680;DHT22;838;51.794;12.258;2023-04-25T02:20:36;7.90;18.80
1680;DHT22;838;51.794;12.258;2023-04-25T02:23:03;7.80;19.60
1680;DHT22;838;51.794;12.258;2023-04-25T02:25:29;7.80;19.50
1680;DHT22;838;51.794;12.258;2023-04-25T02:27:54;7.70;19.50
1680;DHT22;838;51.794;12.258;2023-04-25T02:30:20;7.70;20.10
1680;DHT22;838;51.794;12.258;2023-04-25T02:32:46;7.70;20.00
1680;DHT22;838;51.794;12.258;2023-04-25T02:35:11;7.80;19.40
1680;DHT22;838;51.794;12.258;2023-04-25T02:37:38;7.80;18.80
1680;DHT22;838;51.794;12.258;2023-04-25T02:40:05;7.80;18.80
1680;DHT22;838;51.794;12.258;2023-04-25T02:42:31;7.80;18.80
1680;DHT22;838;51.794;12.258;2023-04-25T02:44:57;7.70;18.60
1680;DHT22;838;51.794;12.258;2023-04-25T02:47:23;7.70;18.90
1680;DHT22;838;51.794;12.258;2023-04-25T02:49:49;7.70;18.80
1680;DHT22;838;51.794;12.258;2023-04-25T02:52:14;7.50;18.50
1680;DHT22;838;51.794;12.258;2023-04-25T02:54:40;7.50;19.10
1680;DHT22;838;51.794;12.258;2023-04-25T02:57:07;7.50;19.20
1680;DHT22;838;51.794;12.258;2023-04-25T02:59:33;7.50;19.60
1680;DHT22;838;51.794;12.258;2023-04-25T03:01:59;7.40;19.40
1680;DHT22;838;51.794;12.258;2023-04-25T03:04:24;7.40;20.30
1680;DHT22;838;51.794;12.258;2023-04-25T03:09:16;7.40;19.10
1680;DHT22;838;51.794;12.258;2023-04-25T03:11:44;7.40;20.10
1680;DHT22;838;51.794;12.258;2023-04-25T03:14:10;7.40;20.10
1680;DHT22;838;51.794;12.258;2023-04-25T03:16:36;7.40;20.10
1680;DHT22;838;51.794;12.258;2023-04-25T03:19:02;7.30;21.20
1680;DHT22;838;51.794;12.258;2023-04-25T03:21:29;7.40;20.60
1680;DHT22;838;51.794;12.258;2023-04-25T03:23:57;7.50;19.80
1680;DHT22;838;51.794;12.258;2023-04-25T03:26:23;7.60;20.00
1680;DHT22;838;51.794;12.258;2023-04-25T03:28:49;7.60;19.30
1680;DHT22;838;51.794;12.258;2023-04-25T03:31:14;7.50;19.30
1680;DHT22;838;51.794;12.258;2023-04-25T03:33:40;7.50;19.50
1680;DHT22;838;51.794;12.258;2023-04-25T03:36:06;7.50;19.00
1680;DHT22;838;51.794;12.258;2023-04-25T03:38:32;7.40;18.60
1680;DHT22;838;51.794;12.258;2023-04-25T03:40:58;7.40;18.50
1680;DHT22;838;51.794;12.258;2023-04-25T03:43:24;7.50;18.20
1680;DHT22;838;51.794;12.258;2023-04-25T03:45:50;7.50;17.40
1680;DHT22;838;51.794;12.258;2023-04-25T03:48:16;7.60;17.40
1680;DHT22;838;51.794;12.258;2023-04-25T03:50:41;7.40;18.10
1680;DHT22;838;51.794;12.258;2023-04-25T03:53:07;7.40;18.00
1680;DHT22;838;51.794;12.258;2023-04-25T03:55:33;7.40;17.40
1680;DHT22;838;51.794;12.258;2023-04-25T03:57:58;7.30;18.30
1680;DHT22;838;51.794;12.258;2023-04-25T04:02:51;7.30;17.50
1680;DHT22;838;51.794;12.258;2023-04-25T04:05:17;7.10;18.60
1680;DHT22;838;51.794;12.258;2023-04-25T04:07:42;7.30;18.50
1680;DHT22;838;51.794;12.258;2023-04-25T04:10:11;7.20;18.40
1680;DHT22;838;51.794;12.258;2023-04-25T04:12:38;7.30;18.30
1680;DHT22;838;51.794;12.258;2023-04-25T04:15:07;7.30;18.50
1680;DHT22;838;51.794;12.258;2023-04-25T04:22:25;7.00;19.80
1680;DHT22;838;51.794;12.258;2023-04-25T04:24:51;7.00;20.00
1680;DHT22;838;51.794;12.258;2023-04-25T04:27:18;7.00;20.10
1680;DHT22;838;51.794;12.258;2023-04-25T04:29:45;7.00;20.70
1680;DHT22;838;51.794;12.258;2023-04-25T04:32:11;7.00;19.90
1680;DHT22;838;51.794;12.258;2023-04-25T04:34:37;7.10;19.40
1680;DHT22;838;51.794;12.258;2023-04-25T04:37:05;7.10;20.10
1680;DHT22;838;51.794;12.258;2023-04-25T04:39:33;7.20;19.70
1680;DHT22;838;51.794;12.258;2023-04-25T04:44:27;7.40;18.20
1680;DHT22;838;51.794;12.258;2023-04-25T04:46:54;7.70;18.40
1680;DHT22;838;51.794;12.258;2023-04-25T04:49:20;8.10;16.20
1680;DHT22;838;51.794;12.258;2023-04-25T04:51:46;8.40;14.50
1680;DHT22;838;51.794;12.258;2023-04-25T04:54:13;8.80;12.80
1680;DHT22;838;51.794;12.258;2023-04-25T04:56:38;9.20;11.30
1680;DHT22;838;51.794;12.258;2023-04-25T04:59:04;9.30;9.80
1680;DHT22;838;51.794;12.258;2023-04-25T05:01:30;9.60;8.50
1680;DHT22;838;51.794;12.258;2023-04-25T05:03:56;9.70;7.30
1680;DHT22;838;51.794;12.258;2023-04-25T05:06:26;9.70;7.20
1680;DHT22;838;51.794;12.258;2023-04-25T05:08:52;9.80;6.70
1680;DHT22;838;51.794;12.258;2023-04-25T05:11:19;9.90;6.30
1680;DHT22;838;51.794;12.258;2023-04-25T05:13:44;10.00;5.50
1680;DHT22;838;51.794;12.258;2023-04-25T05:16:11;10.10;4.50
1680;DHT22;838;51.794;12.258;2023-04-25T05:18:38;10.40;4.40
1680;DHT22;838;51.794;12.258;2023-04-25T05:21:04;10.50;3.90
1680;DHT22;838;51.794;12.258;2023-04-25T05:23:31;10.60;4.50
1680;DHT22;838;51.794;12.258;2023-04-25T05:25:57;11.30;3.80
1680;DHT22;838;51.794;12.258;2023-04-25T05:28:23;12.10;1.00
1680;DHT22;838;51.794;12.258;2023-04-25T05:30:49;12.50;1.00
1680;DHT22;838;51.794;12.258;2023-04-25T05:33:15;12.60;1.00
1680;DHT22;838;51.794;12.258;2023-04-25T05:35:41;12.40;1.00
1680;DHT22;838;51.794;12.258;2023-04-25T05:38:07;12.40;1.00
1680;DHT22;838;51.794;12.258;2023-04-25T05:40:33;12.40;1.00
1680;DHT22;838;51.794;12.258;2023-04-25T05:42:58;12.30;1.00
1680;DHT22;838;51.794;12.258;2023-04-25T05:45:24;12.30;1.00
1680;DHT22;838;51.794;12.258;2023-04-25T05:47:50;12.30;1.00
1680;DHT22;838;51.794;12.258;2023-04-25T05:50:16;12.40;1.00
1680;DHT22;838;51.794;12.258;2023-04-25T05:52:42;12.40;1.00
1680;DHT22;838;51.794;12.258;2023-04-25T05:55:08;12.60;1.00
1680;DHT22;838;51.794;12.258;2023-04-25T05:57:33;12.80;1.00
1680;DHT22;838;51.794;12.258;2023-04-25T05:59:59;12.90;1.00
1680;DHT22;838;51.794;12.258;2023-04-25T06:02:25;13.00;1.00
1680;DHT22;838;51.794;12.258;2023-04-25T06:04:52;13.20;1.00
1680;DHT22;838;51.794;12.258;2023-04-25T06:07:21;13.10;1.00
1680;DHT22;838;51.794;12.258;2023-04-25T06:09:47;12.30;1.00
1680;DHT22;838;51.794;12.258;2023-04-25T06:12:12;12.00;1.00
1680;DHT22;838;51.794;12.258;2023-04-25T06:14:38;11.50;1.00
1680;DHT22;838;51.794;12.258;2023-04-25T06:17:04;11.10;1.00
1680;DHT22;838;51.794;12.258;2023-04-25T06:19:34;11.20;1.00
1680;DHT22;838;51.794;12.258;2023-04-25T06:22:01;10.90;1.70
1680;DHT22;838;51.794;12.258;2023-04-25T06:24:26;10.80;2.70
1680;DHT22;838;51.794;12.258;2023-04-25T06:26:52;10.80;3.80
1680;DHT22;838;51.794;12.258;2023-04-25T06:29:18;10.80;3.20
1680;DHT22;838;51.794;12.258;2023-04-25T06:31:44;10.60;4.50
1680;DHT22;838;51.794;12.258;2023-04-25T06:34:09;10.70;5.10
1680;DHT22;838;51.794;12.258;2023-04-25T06:36:35;10.80;4.90
1680;DHT22;838;51.794;12.258;2023-04-25T06:39:01;10.90;4.30
1680;DHT22;838;51.794;12.258;2023-04-25T06:41:27;10.70;5.30
1680;DHT22;838;51.794;12.258;2023-04-25T06:43:53;10.20;7.70
1680;DHT22;838;51.794;12.258;2023-04-25T06:46:19;9.90;9.60
1680;DHT22;838;51.794;12.258;2023-04-25T06:48:44;9.80;10.70
1680;DHT22;838;51.794;12.258;2023-04-25T06:51:10;9.80;12.40
1680;DHT22;838;51.794;12.258;2023-04-25T06:53:36;9.80;13.30
1680;DHT22;838;51.794;12.258;2023-04-25T06:56:02;10.00;10.80
1680;DHT22;838;51.794;12.258;2023-04-25T06:58:28;10.00;12.00
1680;DHT22;838;51.794;12.258;2023-04-25T07:05:46;9.80;15.20
1680;DHT22;838;51.794;12.258;2023-04-25T07:08:12;9.80;16.30
1680;DHT22;838;51.794;12.258;2023-04-25T07:10:38;9.90;17.50
1680;DHT22;838;51.794;12.258;2023-04-25T07:13:03;10.10;15.80
1680;DHT22;838;51.794;12.258;2023-04-25T07:15:29;10.00;17.10
1680;DHT22;838;51.794;12.258;2023-04-25T07:17:55;9.80;18.70
1680;DHT22;838;51.794;12.258;2023-04-25T07:20:21;9.70;19.70
1680;DHT22;838;51.794;12.258;2023-04-25T07:22:46;9.60;20.60
1680;DHT22;838;51.794;12.258;2023-04-25T07:25:12;9.40;24.30
1680;DHT22;838;51.794;12.258;2023-04-25T07:27:38;9.30;25.50
1680;DHT22;838;51.794;12.258;2023-04-25T07:30:05;9.20;24.90
1680;DHT22;838;51.794;12.258;2023-04-25T07:32:31;9.00;21.30
1680;DHT22;838;51.794;12.258;2023-04-25T07:34:57;8.80;16.20
1680;DHT22;838;51.794;12.258;2023-04-25T07:37:23;8.70;15.80
1680;DHT22;838;51.794;12.258;2023-04-25T07:39:48;8.60;15.80
1680;DHT22;838;51.794;12.258;2023-04-25T07:42:14;8.70;17.30
1680;DHT22;838;51.794;12.258;2023-04-25T07:44:40;8.90;14.60
1680;DHT22;838;51.794;12.258;2023-04-25T07:47:07;8.90;14.10
1680;DHT22;838;51.794;12.258;2023-04-25T07:49:36;8.90;13.20
1680;DHT22;838;51.794;12.258;2023-04-25T07:52:04;9.10;12.80
1680;DHT22;838;51.794;12.258;2023-04-25T07:54:30;9.40;13.00
1680;DHT22;838;51.794;12.258;2023-04-25T07:56:56;9.50;8.10
1680;DHT22;838;51.794;12.258;2023-04-25T08:01:48;10.10;5.00
1680;DHT22;838;51.794;12.258;2023-04-25T08:04:14;10.30;5.50
1680;DHT22;838;51.794;12.258;2023-04-25T08:06:40;10.30;3.30
1680;DHT22;838;51.794;12.258;2023-04-25T08:09:06;10.50;3.20
1680;DHT22;838;51.794;12.258;2023-04-25T08:11:33;10.50;2.30
1680;DHT22;838;51.794;12.258;2023-04-25T08:14:00;10.60;2.40
1680;DHT22;838;51.794;12.258;2023-04-25T08:16:25;10.60;1.00
1680;DHT22;838;51.794;12.258;2023-04-25T08:18:51;10.50;1.00
1680;DHT22;838;51.794;12.258;2023-04-25T08:21:17;10.40;1.00
1680;DHT22;838;51.794;12.258;2023-04-25T08:23:42;9.90;3.30
1680;DHT22;838;51.794;12.258;2023-04-25T08:26:08;9.80;7.00
1680;DHT22;838;51.794;12.258;2023-04-25T08:28:34;9.70;7.40
1680;DHT22;838;51.794;12.258;2023-04-25T08:30:59;9.90;8.70
1680;DHT22;838;51.794;12.258;2023-04-25T08:33:25;10.20;7.70
1680;DHT22;838;51.794;12.258;2023-04-25T08:35:51;10.40;4.60
1680;DHT22;838;51.794;12.258;2023-04-25T08:38:18;10.50;3.40
1680;DHT22;838;51.794;12.258;2023-04-25T08:40:44;10.50;3.20
1680;DHT22;838;51.794;12.258;2023-04-25T08:43:13;10.80;3.10
1680;DHT22;838;51.794;12.258;2023-04-25T08:45:41;10.90;2.50
1680;DHT22;838;51.794;12.258;2023-04-25T08:48:12;11.20;1.00
1680;DHT22;838;51.794;12.258;2023-04-25T08:50:55;11.30;1.00
1680;DHT22;838;51.794;12.258;2023-04-25T08:53:25;11.60;1.00
1680;DHT22;838;51.794;12.258;2023-04-25T08:55:52;11.90;1.00
1680;DHT22;838;51.794;12.258;2023-04-25T08:58:18;12.90;1.00
1680;DHT22;838;51.794;12.258;2023-04-25T09:00:46;13.30;1.00
1680;DHT22;838;51.794;12.258;2023-04-25T09:03:12;13.80;1.00
1680;DHT22;838;51.794;12.258;2023-04-25T09:05:40;13.50;1.00
1680;DHT22;838;51.794;12.258;2023-04-25T09:08:06;13.30;1.00
1680;DHT22;838;51.794;12.258;2023-04-25T09:10:32;13.30;1.00
1680;DHT22;838;51.794;12.258;2023-04-25T09:13:28;12.70;1.00
1680;DHT22;838;51.794;12.258;2023-04-25T09:15:57;12.40;1.00
1680;DHT22;838;51.794;12.258;2023-04-25T09:18:23;12.00;1.00
1680;DHT22;838;51.794;12.258;2023-04-25T09:20:52;11.90;1.00
1680;DHT22;838;51.794;12.258;2023-04-25T09:23:19;12.10;1.00
1680;DHT22;838;51.794;12.258;2023-04-25T09:25:48;12.20;1.00
1680;DHT22;838;51.794;12.258;2023-04-25T09:28:14;12.30;1.00
1680;DHT22;838;51.794;12.258;2023-04-25T09:30:39;12.30;1.00
1680;DHT22;838;51.794;12.258;2023-04-25T09:33:11;12.40;1.00
1680;DHT22;838;51.794;12.258;2023-04-25T09:35:39;12.70;1.00
1680;DHT22;838;51.794;12.258;2023-04-25T09:38:13;13.00;1.00
1680;DHT22;838;51.794;12.258;2023-04-25T09:40:43;13.50;1.00
1680;DHT22;838;51.794;12.258;2023-04-25T09:43:22;14.00;1.00
1680;DHT22;838;51.794;12.258;2023-04-25T09:45:48;13.80;1.00
1680;DHT22;838;51.794;12.258;2023-04-25T09:48:19;13.80;1.00
1680;DHT22;838;51.794;12.258;2023-04-25T09:53:31;12.50;1.00
1680;DHT22;838;51.794;12.258;2023-04-25T09:55:59;12.00;1.00
1680;DHT22;838;51.794;12.258;2023-04-25T09:58:25;11.80;1.00
1680;DHT22;838;51.794;12.258;2023-04-25T10:00:55;11.80;1.00
1680;DHT22;838;51.794;12.258;2023-04-25T10:03:25;11.70;1.00
1680;DHT22;838;51.794;12.258;2023-04-25T10:05:56;11.70;1.00
1680;DHT22;838;51.794;12.258;2023-04-25T10:08:24;11.50;1.00
1680;DHT22;838;51.794;12.258;2023-04-25T10:10:52;11.40;1.00
1680;DHT22;838;51.794;12.258;2023-04-25T10:13:18;11.30;1.00
1680;DHT22;838;51.794;12.258;2023-04-25T10:15:45;11.40;1.00
1680;DHT22;838;51.794;12.258;2023-04-25T10:18:12;11.60;1.00
1680;DHT22;838;51.794;12.258;2023-04-25T10:20:38;11.50;1.00
1680;DHT22;838;51.794;12.258;2023-04-25T10:23:13;11.80;1.00
1680;DHT22;838;51.794;12.258;2023-04-25T10:25:41;12.00;1.00
1680;DHT22;838;51.794;12.258;2023-04-25T10:28:07;11.90;1.00
1680;DHT22;838;51.794;12.258;2023-04-25T10:30:33;11.80;1.00
1680;DHT22;838;51.794;12.258;2023-04-25T10:32:59;11.80;1.00
1680;DHT22;838;51.794;12.258;2023-04-25T10:35:27;12.20;1.00
1680;DHT22;838;51.794;12.258;2023-04-25T10:38:04;12.60;1.00
1680;DHT22;838;51.794;12.258;2023-04-25T10:40:33;12.90;1.00
1680;DHT22;838;51.794;12.258;2023-04-25T10:45:56;13.50;1.00
1680;DHT22;838;51.794;12.258;2023-04-25T10:48:26;13.10;1.00
1680;DHT22;838;51.794;12.258;2023-04-25T10:51:15;12.20;1.00
1680;DHT22;838;51.794;12.258;2023-04-25T10:53:41;12.10;1.00
1680;DHT22;838;51.794;12.258;2023-04-25T10:58:42;11.80;1.00
1680;DHT22;838;51.794;12.258;2023-04-25T11:01:08;11.70;1.00
1680;DHT22;838;51.794;12.258;2023-04-25T11:03:40;11.60;1.00
1680;DHT22;838;51.794;12.258;2023-04-25T11:06:22;11.90;1.00
1680;DHT22;838;51.794;12.258;2023-04-25T11:08:50;12.20;1.00
1680;DHT22;838;51.794;12.258;2023-04-25T11:11:17;12.40;1.00
1680;DHT22;838;51.794;12.258;2023-04-25T11:13:43;12.60;1.00
1680;DHT22;838;51.794;12.258;2023-04-25T11:16:09;12.80;1.00
1680;DHT22;838;51.794;12.258;2023-04-25T11:18:35;13.00;1.00
1680;DHT22;838;51.794;12.258;2023-04-25T11:21:02;12.70;1.00
1680;DHT22;838;51.794;12.258;2023-04-25T11:23:29;12.80;1.00
1680;DHT22;838;51.794;12.258;2023-04-25T11:25:55;12.70;1.00
1680;DHT22;838;51.794;12.258;2023-04-25T11:28:21;12.50;1.00
1680;DHT22;838;51.794;12.258;2023-04-25T11:30:50;12.40;1.00
1680;DHT22;838;51.794;12.258;2023-04-25T11:33:16;12.00;1.00
1680;DHT22;838;51.794;12.258;2023-04-25T11:35:42;11.40;1.00
1680;DHT22;838;51.794;12.258;2023-04-25T11:38:08;11.10;1.00
1680;DHT22;838;51.794;12.258;2023-04-25T11:40:35;11.10;1.00
1680;DHT22;838;51.794;12.258;2023-04-25T11:43:01;11.30;1.00
1680;DHT22;838;51.794;12.258;2023-04-25T11:45:27;11.30;1.00
1680;DHT22;838;51.794;12.258;2023-04-25T11:47:54;11.40;1.00
1680;DHT22;838;51.794;12.258;2023-04-25T11:50:20;11.40;1.00
1680;DHT22;838;51.794;12.258;2023-04-25T11:52:47;11.60;1.00
1680;DHT22;838;51.794;12.258;2023-04-25T11:55:19;12.00;1.00
1680;DHT22;838;51.794;12.258;2023-04-25T11:57:47;12.20;1.00
1680;DHT22;838;51.794;12.258;2023-04-25T12:00:16;12.10;1.00
1680;DHT22;838;51.794;12.258;2023-04-25T12:02:47;12.10;1.00
1680;DHT22;838;51.794;12.258;2023-04-25T12:05:16;12.20;1.00
1680;DHT22;838;51.794;12.258;2023-04-25T12:07:42;12.60;1.00
1680;DHT22;838;51.794;12.258;2023-04-25T12:10:13;12.80;1.00
1680;DHT22;838;51.794;12.258;2023-04-25T12:12:44;12.40;1.00
1680;DHT22;838;51.794;12.258;2023-04-25T12:17:38;12.60;1.00
1680;DHT22;838;51.794;12.258;2023-04-25T12:22:34;12.40;1.00
1680;DHT22;838;51.794;12.258;2023-04-25T12:25:00;12.10;1.00
1680;DHT22;838;51.794;12.258;2023-04-25T12:27:26;11.80;1.00
1680;DHT22;838;51.794;12.258;2023-04-25T12:29:54;11.60;1.00
1680;DHT22;838;51.794;12.258;2023-04-25T12:32:21;11.80;1.00
1680;DHT22;838;51.794;12.258;2023-04-25T12:34:47;12.10;1.00
1680;DHT22;838;51.794;12.258;2023-04-25T12:37:13;12.30;1.00
1680;DHT22;838;51.794;12.258;2023-04-25T12:39:38;12.70;1.00
1680;DHT22;838;51.794;12.258;2023-04-25T12:42:04;12.80;1.00
1680;DHT22;838;51.794;12.258;2023-04-25T12:44:33;12.90;1.00
1680;DHT22;838;51.794;12.258;2023-04-25T12:46:59;12.80;1.00
1680;DHT22;838;51.794;12.258;2023-04-25T12:49:25;12.80;1.00
1680;DHT22;838;51.794;12.258;2023-04-25T12:51:51;12.70;1.00
1680;DHT22;838;51.794;12.258;2023-04-25T12:54:17;12.90;1.00
1680;DHT22;838;51.794;12.258;2023-04-25T12:56:43;12.80;1.00
1680;DHT22;838;51.794;12.258;2023-04-25T12:59:09;13.10;1.00
1680;DHT22;838;51.794;12.258;2023-04-25T13:01:35;13.30;1.00
1680;DHT22;838;51.794;12.258;2023-04-25T13:04:00;13.40;1.00
1680;DHT22;838;51.794;12.258;2023-04-25T13:06:26;13.10;1.00
1680;DHT22;838;51.794;12.258;2023-04-25T13:08:52;12.90;1.00
1680;DHT22;838;51.794;12.258;2023-04-25T13:11:18;12.90;1.00
1680;DHT22;838;51.794;12.258;2023-04-25T13:13:44;13.00;1.00
1680;DHT22;838;51.794;12.258;2023-04-25T13:16:10;13.40;1.00
1680;DHT22;838;51.794;12.258;2023-04-25T13:18:36;13.40;1.00
1680;DHT22;838;51.794;12.258;2023-04-25T13:21:02;13.20;1.00
1680;DHT22;838;51.794;12.258;2023-04-25T13:23:29;13.10;1.00
1680;DHT22;838;51.794;12.258;2023-04-25T13:25:55;13.00;1.00
1680;DHT22;838;51.794;12.258;2023-04-25T13:28:25;13.10;1.00
1680;DHT22;838;51.794;12.258;2023-04-25T13:30:51;13.30;1.00
1680;DHT22;838;51.794;12.258;2023-04-25T13:33:17;13.30;1.00
1680;DHT22;838;51.794;12.258;2023-04-25T13:35:43;13.30;1.00
1680;DHT22;838;51.794;12.258;2023-04-25T13:38:12;13.30;1.00
1680;DHT22;838;51.794;12.258;2023-04-25T13:40:38;13.00;1.00
1680;DHT22;838;51.794;12.258;2023-04-25T13:43:04;12.90;1.00
1680;DHT22;838;51.794;12.258;2023-04-25T13:45:31;12.50;1.00
1680;DHT22;838;51.794;12.258;2023-04-25T13:47:57;12.10;1.00
1680;DHT22;838;51.794;12.258;2023-04-25T13:50:23;12.00;1.00
1680;DHT22;838;51.794;12.258;2023-04-25T13:52:49;11.70;1.00
1680;DHT22;838;51.794;12.258;2023-04-25T13:55:14;11.50;1.00
1680;DHT22;838;51.794;12.258;2023-04-25T13:57:40;11.50;1.00
1680;DHT22;838;51.794;12.258;2023-04-25T14:00:07;11.60;1.00
1680;DHT22;838;51.794;12.258;2023-04-25T14:02:37;11.40;1.00
1680;DHT22;838;51.794;12.258;2023-04-25T14:05:06;11.40;1.00
1680;DHT22;838;51.794;12.258;2023-04-25T14:07:34;11.40;1.00
1680;DHT22;838;51.794;12.258;2023-04-25T14:10:00;11.40;1.00
1680;DHT22;838;51.794;12.258;2023-04-25T14:12:26;11.60;1.00
1680;DHT22;838;51.794;12.258;2023-04-25T14:14:52;12.00;1.00
1680;DHT22;838;51.794;12.258;2023-04-25T14:17:19;12.20;1.00
1680;DHT22;838;51.794;12.258;2023-04-25T14:19:44;12.40;1.00
1680;DHT22;838;51.794;12.258;2023-04-25T14:22:14;12.60;1.00
1680;DHT22;838;51.794;12.258;2023-04-25T14:24:41;12.80;1.00
1680;DHT22;838;51.794;12.258;2023-04-25T14:27:07;12.70;1.00
1680;DHT22;838;51.794;12.258;2023-04-25T14:29:32;12.40;1.00
1680;DHT22;838;51.794;12.258;2023-04-25T14:31:58;11.90;1.00
1680;DHT22;838;51.794;12.258;2023-04-25T14:34:25;11.70;1.00
1680;DHT22;838;51.794;12.258;2023-04-25T14:36:51;11.70;1.00
1680;DHT22;838;51.794;12.258;2023-04-25T14:39:17;11.70;1.00
1680;DHT22;838;51.794;12.258;2023-04-25T14:41:43;11.80;1.00
1680;DHT22;838;51.794;12.258;2023-04-25T14:44:09;12.00;1.00
1680;DHT22;838;51.794;12.258;2023-04-25T14:46:36;12.10;1.00
1680;DHT22;838;51.794;12.258;2023-04-25T14:49:02;12.20;1.00
1680;DHT22;838;51.794;12.258;2023-04-25T14:51:28;12.20;1.00
1680;DHT22;838;51.794;12.258;2023-04-25T14:53:55;12.30;1.00
1680;DHT22;838;51.794;12.258;2023-04-25T14:56:21;12.30;1.00
1680;DHT22;838;51.794;12.258;2023-04-25T14:58:47;12.40;1.00
1680;DHT22;838;51.794;12.258;2023-04-25T15:01:14;12.50;1.00
1680;DHT22;838;51.794;12.258;2023-04-25T15:03:40;12.40;1.00
1680;DHT22;838;51.794;12.258;2023-04-25T15:06:06;12.30;1.00
1680;DHT22;838;51.794;12.258;2023-04-25T15:08:32;12.20;1.00
1680;DHT22;838;51.794;12.258;2023-04-25T15:10:58;12.40;1.00
1680;DHT22;838;51.794;12.258;2023-04-25T15:13:24;12.50;1.00
1680;DHT22;838;51.794;12.258;2023-04-25T15:15:50;12.30;1.00
1680;DHT22;838;51.794;12.258;2023-04-25T15:18:19;12.10;1.00
1680;DHT22;838;51.794;12.258;2023-04-25T15:20:47;12.30;1.00
1680;DHT22;838;51.794;12.258;2023-04-25T15:23:12;12.10;1.00
1680;DHT22;838;51.794;12.258;2023-04-25T15:25:38;12.00;1.00
1680;DHT22;838;51.794;12.258;2023-04-25T15:28:04;12.00;1.00
1680;DHT22;838;51.794;12.258;2023-04-25T15:30:30;12.00;1.00
1680;DHT22;838;51.794;12.258;2023-04-25T15:32:55;12.20;1.00
1680;DHT22;838;51.794;12.258;2023-04-25T15:35:21;12.30;1.00
1680;DHT22;838;51.794;12.258;2023-04-25T15:37:47;12.20;1.00
1680;DHT22;838;51.794;12.258;2023-04-25T15:40:16;12.10;1.00
1680;DHT22;838;51.794;12.258;2023-04-25T15:42:49;12.00;1.00
1680;DHT22;838;51.794;12.258;2023-04-25T15:45:24;11.80;1.00
1680;DHT22;838;51.794;12.258;2023-04-25T15:47:51;11.60;1.00
1680;DHT22;838;51.794;12.258;2023-04-25T15:50:18;11.40;1.00
1680;DHT22;838;51.794;12.258;2023-04-25T15:52:44;11.30;1.00
1680;DHT22;838;51.794;12.258;2023-04-25T15:55:10;11.50;1.00
1680;DHT22;838;51.794;12.258;2023-04-25T15:57:37;11.90;1.00
1680;DHT22;838;51.794;12.258;2023-04-25T16:00:05;12.20;1.00
1680;DHT22;838;51.794;12.258;2023-04-25T16:02:43;12.30;1.00
1680;DHT22;838;51.794;12.258;2023-04-25T16:05:09;12.20;1.00
1680;DHT22;838;51.794;12.258;2023-04-25T16:07:38;12.00;1.00
1680;DHT22;838;51.794;12.258;2023-04-25T16:10:04;11.70;1.00
1680;DHT22;838;51.794;12.258;2023-04-25T16:12:30;11.50;1.00
1680;DHT22;838;51.794;12.258;2023-04-25T16:14:56;11.40;1.00
1680;DHT22;838;51.794;12.258;2023-04-25T16:17:26;11.50;1.00
1680;DHT22;838;51.794;12.258;2023-04-25T16:19:54;11.50;1.00
1680;DHT22;838;51.794;12.258;2023-04-25T16:22:20;11.50;1.00
1680;DHT22;838;51.794;12.258;2023-04-25T16:24:46;11.30;1.00
1680;DHT22;838;51.794;12.258;2023-04-25T16:27:12;11.10;1.00
1680;DHT22;838;51.794;12.258;2023-04-25T16:29:38;11.10;1.00
1680;DHT22;838;51.794;12.258;2023-04-25T16:32:04;11.00;1.00
1680;DHT22;838;51.794;12.258;2023-04-25T16:34:30;10.90;1.00
1680;DHT22;838;51.794;12.258;2023-04-25T16:36:56;10.80;1.00
1680;DHT22;838;51.794;12.258;2023-04-25T16:39:22;10.70;1.00
1680;DHT22;838;51.794;12.258;2023-04-25T16:41:48;10.70;1.00
1680;DHT22;838;51.794;12.258;2023-04-25T16:44:14;10.80;1.00
1680;DHT22;838;51.794;12.258;2023-04-25T16:46:40;11.10;1.00
1680;DHT22;838;51.794;12.258;2023-04-25T16:49:05;11.00;1.00
1680;DHT22;838;51.794;12.258;2023-04-25T16:51:32;11.00;1.00
1680;DHT22;838;51.794;12.258;2023-04-25T16:54:01;10.90;1.00